Normand Subsea — 2CQP8 — position and weather

sailwx.info

Track history (hours):
 
Tides and Currents Weather Stations Pressure Air Temp Water Temp Dewpoint Dewpoint Depression Visibility Wind Speed Wind Dir Waves Ship Positions

Normand Subsea

Last reported at 2014-Jul-16 18:03 UTC. Time now 2014-Jul-24 13:07 UTC.
Position N 57°43' W 001°30'.

Length 113 m; draft 7.7 m.

Type: Other ship. MMSI: 235074949.

Date/timePositionNaut miles runAvg speedWind from/ knotsBaromVisibWave heightAir tempDewpointWater temp
2014-Jul-16 18:03N 57°43' W 001°30'610.3
2014-Jul-16 17:30N 57°37' W 001°34'9 9.4
2014-Jul-16 16:34N 57°30' W 001°43'2 1.8
2014-Jul-16 15:33N 57°30' W 001°46'0 0.0
2014-Jul-16 14:33N 57°30' W 001°46'0 0.0
2014-Jul-16 13:33N 57°30' W 001°46'0 0.0
2014-Jul-16 12:27N 57°30' W 001°46'0 0.0
2014-Jul-16 11:33N 57°30' W 001°46'0 0.0
2014-Jul-16 10:33N 57°30' W 001°46'0 0.0
2014-Jul-16 09:33N 57°30' W 001°46'0 0.0
2014-Jul-16 08:33N 57°30' W 001°46'0 0.0
2014-Jul-16 07:33N 57°30' W 001°46'6 6.0
2014-Jul-16 06:33N 57°28' W 001°36'1111.4
2014-Jul-16 05:33N 57°26' W 001°15'1111.1
2014-Jul-16 04:33N 57°24' W 000°55'  
2014-Jul-11 23:33N 57°15' E 000°49'0 0.0
2014-Jul-11 22:33N 57°15' E 000°49'  
2014-Jul-07 12:33N 57°28' W 001°31'9 8.8
2014-Jul-07 11:33N 57°30' W 001°47'0 0.3
2014-Jul-07 10:33N 57°30' W 001°47'0 0.0
2014-Jul-07 09:33N 57°30' W 001°47'0 0.0
2014-Jul-07 08:30N 57°30' W 001°47'0 0.0
2014-Jul-07 07:33N 57°30' W 001°47'0 0.0
2014-Jul-07 06:33N 57°30' W 001°47'0 0.0
2014-Jul-07 05:33N 57°30' W 001°47'0 0.0
2014-Jul-07 04:33N 57°30' W 001°47'0 0.0
2014-Jul-07 03:33N 57°30' W 001°47'0 0.0
2014-Jul-07 02:33N 57°30' W 001°47'0 0.0
2014-Jul-07 01:33N 57°30' W 001°47'0 0.0
2014-Jul-07 00:33N 57°30' W 001°47'0 0.0
2014-Jul-06 23:33N 57°30' W 001°47'0 0.0
2014-Jul-06 22:33N 57°30' W 001°47'0 0.0
2014-Jul-06 21:33N 57°30' W 001°47'0 0.0
2014-Jul-06 20:33N 57°30' W 001°47'0 0.0
2014-Jul-06 19:33N 57°30' W 001°47'0 0.0
2014-Jul-06 18:33N 57°30' W 001°47'  
Track history (hours):
 
Tides and Currents Weather Stations Pressure Air Temp Water Temp Dewpoint Dewpoint Depression Visibility Wind Speed Wind Dir Waves Ship Positions

Normand Subsea

Last reported at 2014-Jul-16 18:03 UTC. Time now 2014-Jul-24 13:07 UTC.
Position N 57°43' W 001°30'.

Length 113 m; draft 7.7 m.

Type: Other ship. MMSI: 235074949.

Date/timePositionNaut miles runAvg speedWind from/ knotsBaromVisibWave heightAir tempDewpointWater temp
2014-Jul-16 18:03N 57°43' W 001°30'610.3
2014-Jul-16 17:30N 57°37' W 001°34'9 9.4
2014-Jul-16 16:34N 57°30' W 001°43'2 1.8
2014-Jul-16 15:33N 57°30' W 001°46'0 0.0
2014-Jul-16 14:33N 57°30' W 001°46'0 0.0
2014-Jul-16 13:33N 57°30' W 001°46'0 0.0
2014-Jul-16 12:27N 57°30' W 001°46'0 0.0
2014-Jul-16 11:33N 57°30' W 001°46'0 0.0
2014-Jul-16 10:33N 57°30' W 001°46'0 0.0
2014-Jul-16 09:33N 57°30' W 001°46'0 0.0
2014-Jul-16 08:33N 57°30' W 001°46'0 0.0
2014-Jul-16 07:33N 57°30' W 001°46'6 6.0
2014-Jul-16 06:33N 57°28' W 001°36'1111.4
2014-Jul-16 05:33N 57°26' W 001°15'1111.1
2014-Jul-16 04:33N 57°24' W 000°55'  
2014-Jul-11 23:33N 57°15' E 000°49'0 0.0
2014-Jul-11 22:33N 57°15' E 000°49'  
2014-Jul-07 12:33N 57°28' W 001°31'9 8.8
2014-Jul-07 11:33N 57°30' W 001°47'0 0.3
2014-Jul-07 10:33N 57°30' W 001°47'0 0.0
2014-Jul-07 09:33N 57°30' W 001°47'0 0.0
2014-Jul-07 08:30N 57°30' W 001°47'0 0.0
2014-Jul-07 07:33N 57°30' W 001°47'0 0.0
2014-Jul-07 06:33N 57°30' W 001°47'0 0.0
2014-Jul-07 05:33N 57°30' W 001°47'0 0.0
2014-Jul-07 04:33N 57°30' W 001°47'0 0.0
2014-Jul-07 03:33N 57°30' W 001°47'0 0.0
2014-Jul-07 02:33N 57°30' W 001°47'0 0.0
2014-Jul-07 01:33N 57°30' W 001°47'0 0.0
2014-Jul-07 00:33N 57°30' W 001°47'0 0.0
2014-Jul-06 23:33N 57°30' W 001°47'0 0.0
2014-Jul-06 22:33N 57°30' W 001°47'0 0.0
2014-Jul-06 21:33N 57°30' W 001°47'0 0.0
2014-Jul-06 20:33N 57°30' W 001°47'0 0.0
2014-Jul-06 19:33N 57°30' W 001°47'0 0.0
2014-Jul-06 18:33N 57°30' W 001°47'  

Dump ship's entire track history